createdAt,value
2023-03-06T00:00:33.882Z,2.18
2023-03-06T00:03:00.604Z,2.19
2023-03-06T00:05:27.792Z,2.19
2023-03-06T00:07:54.419Z,2.22
2023-03-06T00:10:27.133Z,2.14
2023-03-06T00:12:55.643Z,2.10
2023-03-06T00:15:22.317Z,2.07
2023-03-06T00:17:48.691Z,2.04
2023-03-06T00:20:17.305Z,2.04
2023-03-06T00:22:43.626Z,1.99
2023-03-06T00:25:15.830Z,1.97
2023-03-06T00:27:42.418Z,1.99
2023-03-06T00:30:12.907Z,1.99
2023-03-06T00:32:39.284Z,1.97
2023-03-06T00:35:08.450Z,1.94
2023-03-06T00:37:34.815Z,2.08
2023-03-06T00:40:01.354Z,2.04
2023-03-06T00:42:34.385Z,2.07
2023-03-06T00:45:05.785Z,2.02
2023-03-06T00:47:32.572Z,1.98
2023-03-06T00:49:58.865Z,2.06
2023-03-06T00:52:27.636Z,2.07
2023-03-06T00:54:54.194Z,2.04
2023-03-06T00:57:22.682Z,2.10
2023-03-06T00:59:49.014Z,2.11
2023-03-06T01:02:20.291Z,1.98
2023-03-06T01:04:47.111Z,1.98
2023-03-06T01:07:18.331Z,2.02
2023-03-06T01:09:44.625Z,1.93
2023-03-06T01:12:10.976Z,1.91
2023-03-06T01:14:37.508Z,1.88
2023-03-06T01:17:07.390Z,1.96
2023-03-06T01:19:33.666Z,1.91
2023-03-06T01:21:59.983Z,1.96
2023-03-06T01:24:28.486Z,1.91
2023-03-06T01:26:54.893Z,1.95
2023-03-06T01:29:21.246Z,1.97
2023-03-06T01:31:47.762Z,1.99
2023-03-06T01:34:14.250Z,1.97
2023-03-06T01:36:40.600Z,1.96
2023-03-06T01:39:06.909Z,1.92
2023-03-06T01:41:33.254Z,1.88
2023-03-06T01:44:02.720Z,1.89
2023-03-06T01:46:35.928Z,1.91
2023-03-06T01:49:08.255Z,1.96
2023-03-06T01:51:48.955Z,1.90
2023-03-06T01:54:26.969Z,1.87
2023-03-06T01:56:58.484Z,1.87
2023-03-06T01:59:30.274Z,1.82
2023-03-06T02:01:59.246Z,1.74
2023-03-06T02:04:25.654Z,1.74
2023-03-06T02:06:52.210Z,1.69
2023-03-06T02:09:18.662Z,1.73
2023-03-06T02:11:45.033Z,1.77
2023-03-06T02:14:14.735Z,1.72
2023-03-06T02:16:49.458Z,1.70
2023-03-06T02:19:50.170Z,1.59
2023-03-06T02:22:18.942Z,1.51
2023-03-06T02:25:36.072Z,1.52
2023-03-06T02:28:03.216Z,1.52
2023-03-06T02:30:30.078Z,1.49
2023-03-06T02:32:57.134Z,1.41
2023-03-06T02:35:32.014Z,1.36
2023-03-06T02:38:05.878Z,1.35
2023-03-06T02:40:32.255Z,1.31
2023-03-06T02:43:01.188Z,1.34
2023-03-06T02:45:38.509Z,1.38
2023-03-06T02:48:08.403Z,1.48
2023-03-06T02:50:36.228Z,1.46
2023-03-06T02:53:03.835Z,1.46
2023-03-06T02:55:30.232Z,1.54
2023-03-06T02:57:56.619Z,1.52
2023-03-06T03:00:23.236Z,1.61
2023-03-06T03:02:52.239Z,1.60
2023-03-06T03:05:18.549Z,1.58
2023-03-06T03:07:45.038Z,1.62
2023-03-06T03:10:12.374Z,1.65
2023-03-06T03:12:40.568Z,1.73
2023-03-06T03:15:07.883Z,1.78
2023-03-06T03:17:42.256Z,1.74
2023-03-06T03:20:12.496Z,1.82
2023-03-06T03:22:39.006Z,1.80
2023-03-06T03:25:07.107Z,1.83
2023-03-06T03:27:33.744Z,1.88
2023-03-06T03:30:00.722Z,1.84
2023-03-06T03:32:27.251Z,1.88
2023-03-06T03:34:57.369Z,1.83
2023-03-06T03:37:26.533Z,1.85
2023-03-06T03:39:52.905Z,1.82
2023-03-06T03:42:20.563Z,1.85
2023-03-06T03:44:49.797Z,1.87
2023-03-06T03:47:20.523Z,1.88
2023-03-06T03:49:46.851Z,1.87
2023-03-06T03:52:13.219Z,1.92
2023-03-06T03:54:39.605Z,1.99
2023-03-06T03:57:06.055Z,1.94
2023-03-06T03:59:32.417Z,1.92
2023-03-06T04:02:01.826Z,1.97
2023-03-06T04:04:28.245Z,2.01
2023-03-06T04:06:54.626Z,2.05
2023-03-06T04:09:21.017Z,2.05
2023-03-06T04:11:47.318Z,2.01
2023-03-06T04:14:13.697Z,2.06
2023-03-06T04:16:40.110Z,2.07
2023-03-06T04:19:09.235Z,2.09
2023-03-06T04:21:35.611Z,2.09
2023-03-06T04:24:02.030Z,2.07
2023-03-06T04:26:28.400Z,2.06
2023-03-06T04:28:57.573Z,2.10
2023-03-06T04:31:23.944Z,2.16
2023-03-06T04:33:50.287Z,2.08
2023-03-06T04:36:29.177Z,2.10
2023-03-06T04:38:56.129Z,2.14
2023-03-06T04:41:23.381Z,2.07
2023-03-06T04:43:50.406Z,2.08
2023-03-06T04:46:17.157Z,2.04
2023-03-06T04:48:44.106Z,2.06
2023-03-06T04:51:12.822Z,2.10
2023-03-06T04:53:41.632Z,2.04
2023-03-06T04:56:08.370Z,2.05
2023-03-06T04:58:34.758Z,2.11
2023-03-06T05:01:01.123Z,2.17
2023-03-06T05:03:31.188Z,2.10
2023-03-06T05:05:58.231Z,2.09
2023-03-06T05:08:25.638Z,2.11
2023-03-06T05:11:02.247Z,2.23
2023-03-06T05:13:30.115Z,2.19
2023-03-06T05:16:02.147Z,2.18
2023-03-06T05:18:28.429Z,2.26
2023-03-06T05:20:54.732Z,2.21
2023-03-06T05:23:23.395Z,2.30
2023-03-06T05:25:51.835Z,2.30
2023-03-06T05:28:18.231Z,2.33
2023-03-06T05:30:44.736Z,2.39
2023-03-06T05:33:11.108Z,2.32
2023-03-06T05:35:39.886Z,2.33
2023-03-06T05:38:06.278Z,2.36
2023-03-06T05:40:32.700Z,2.38
2023-03-06T05:42:59.142Z,2.35
2023-03-06T05:45:25.527Z,2.34
2023-03-06T05:47:51.982Z,2.40
2023-03-06T05:50:20.410Z,2.36
2023-03-06T05:52:46.795Z,2.43
2023-03-06T05:55:15.673Z,2.45
2023-03-06T05:57:42.244Z,2.43
2023-03-06T06:00:12.454Z,2.37
2023-03-06T06:02:38.967Z,2.31
2023-03-06T06:05:07.367Z,2.37
2023-03-06T06:07:34.000Z,2.26
2023-03-06T06:10:02.389Z,2.30
2023-03-06T06:12:33.952Z,2.28
2023-03-06T06:15:01.561Z,2.28
2023-03-06T06:17:28.931Z,2.28
2023-03-06T06:19:57.689Z,2.27
2023-03-06T06:22:24.737Z,2.28
2023-03-06T06:24:54.272Z,2.33
2023-03-06T06:27:22.183Z,2.33
2023-03-06T06:29:52.280Z,2.37
2023-03-06T06:32:22.239Z,2.38
2023-03-06T06:34:48.850Z,2.42
2023-03-06T06:37:23.124Z,2.45
2023-03-06T06:39:52.312Z,2.55
2023-03-06T06:42:31.415Z,2.56
2023-03-06T06:45:02.526Z,2.65
2023-03-06T06:47:32.090Z,2.81
2023-03-06T06:49:58.455Z,2.87
2023-03-06T06:52:25.087Z,2.90
2023-03-06T06:54:56.016Z,2.90
2023-03-06T06:57:22.501Z,3.00
2023-03-06T06:59:50.128Z,3.05
2023-03-06T07:02:17.842Z,3.11
2023-03-06T07:05:01.956Z,3.19
2023-03-06T07:07:35.251Z,3.22
2023-03-06T07:10:04.586Z,3.33
2023-03-06T07:12:33.321Z,3.32
2023-03-06T07:14:59.642Z,3.30
2023-03-06T07:17:28.860Z,3.47
2023-03-06T07:19:55.191Z,3.41
2023-03-06T07:22:23.990Z,3.45
2023-03-06T07:24:52.684Z,3.52
2023-03-06T07:27:19.029Z,3.60
2023-03-06T07:29:47.830Z,3.65
2023-03-06T07:32:15.665Z,3.69
2023-03-06T07:34:42.039Z,3.80
2023-03-06T07:37:11.250Z,3.90
2023-03-06T07:39:39.762Z,4.05
2023-03-06T07:42:08.247Z,4.34
2023-03-06T07:44:40.845Z,4.46
2023-03-06T07:47:09.509Z,4.57
2023-03-06T07:49:35.917Z,4.82
2023-03-06T07:52:02.386Z,4.88
2023-03-06T07:54:31.248Z,4.89
2023-03-06T07:56:57.631Z,4.95
2023-03-06T07:59:24.157Z,5.01
2023-03-06T08:01:51.124Z,5.10
2023-03-06T08:04:21.107Z,5.25
2023-03-06T08:06:48.008Z,5.43
2023-03-06T08:09:17.498Z,5.62
2023-03-06T08:11:44.916Z,5.97
2023-03-06T08:14:12.138Z,5.98
2023-03-06T08:16:45.268Z,6.06
2023-03-06T08:19:11.746Z,6.04
2023-03-06T08:21:38.534Z,6.11
2023-03-06T08:24:08.647Z,6.30
2023-03-06T08:26:36.655Z,6.49
2023-03-06T08:29:06.497Z,6.53
2023-03-06T08:31:39.235Z,6.73
2023-03-06T08:34:09.926Z,6.69
2023-03-06T08:36:36.622Z,6.96
2023-03-06T08:39:06.891Z,6.83
2023-03-06T08:41:34.591Z,7.22
2023-03-06T08:44:02.033Z,7.46
2023-03-06T08:46:32.782Z,7.40
2023-03-06T08:49:00.707Z,7.46
2023-03-06T08:51:29.454Z,7.86
2023-03-06T08:54:04.942Z,8.23
2023-03-06T08:56:35.166Z,8.58
2023-03-06T08:59:03.879Z,8.86
2023-03-06T09:01:38.672Z,8.77
2023-03-06T09:04:10.561Z,8.71
2023-03-06T09:06:39.836Z,8.47
2023-03-06T09:09:11.465Z,8.44
2023-03-06T09:11:38.784Z,8.11
2023-03-06T09:14:05.787Z,8.10
2023-03-06T09:16:32.602Z,7.79
2023-03-06T09:18:59.007Z,7.63
2023-03-06T09:21:30.058Z,8.03
2023-03-06T09:23:56.768Z,8.61
2023-03-06T09:26:39.679Z,8.30
2023-03-06T09:29:11.302Z,8.96
2023-03-06T09:31:40.059Z,9.21
2023-03-06T09:34:06.550Z,9.38
2023-03-06T09:36:42.760Z,10.07
2023-03-06T09:39:15.812Z,10.49
2023-03-06T09:41:42.220Z,9.85
2023-03-06T09:44:39.626Z,9.10
2023-03-06T09:47:40.547Z,9.61
2023-03-06T09:50:13.217Z,9.87
2023-03-06T09:53:01.605Z,10.35
2023-03-06T09:55:38.334Z,10.90
2023-03-06T09:58:18.841Z,11.07
2023-03-06T10:00:57.454Z,11.41
2023-03-06T10:03:48.110Z,11.55
2023-03-06T10:06:39.206Z,11.84
2023-03-06T10:09:14.732Z,11.26
2023-03-06T10:11:57.088Z,11.64
2023-03-06T10:14:39.214Z,12.09
2023-03-06T10:17:10.742Z,12.02
2023-03-06T10:19:46.312Z,11.89
2023-03-06T10:22:24.428Z,12.35
2023-03-06T10:24:57.402Z,12.74
2023-03-06T10:27:44.690Z,12.63
2023-03-06T10:30:35.893Z,12.73
2023-03-06T10:33:12.306Z,11.24
2023-03-06T10:35:49.273Z,11.92
2023-03-06T10:38:19.259Z,11.40
2023-03-06T10:40:58.398Z,11.63
2023-03-06T10:43:27.629Z,11.10
2023-03-06T10:45:53.951Z,11.21
2023-03-06T10:48:31.762Z,11.88
2023-03-06T10:51:24.941Z,12.86
2023-03-06T10:54:17.563Z,12.60
2023-03-06T10:56:46.435Z,13.72
2023-03-06T10:59:24.816Z,14.38
2023-03-06T11:02:13.494Z,13.71
2023-03-06T11:04:41.325Z,13.48
2023-03-06T11:07:54.736Z,13.29
2023-03-06T11:10:21.183Z,12.82
2023-03-06T11:13:05.295Z,12.80
2023-03-06T11:15:32.976Z,12.41
2023-03-06T11:18:27.149Z,12.13
2023-03-06T11:20:54.981Z,11.56
2023-03-06T11:23:40.012Z,11.30
2023-03-06T11:26:15.517Z,10.55
2023-03-06T11:29:06.744Z,11.18
2023-03-06T11:31:47.929Z,11.28
2023-03-06T11:34:18.754Z,11.98
2023-03-06T11:36:54.860Z,11.91
2023-03-06T11:39:35.606Z,11.49
2023-03-06T11:42:23.932Z,11.83
2023-03-06T11:45:15.125Z,10.64
2023-03-06T11:47:45.837Z,10.40
2023-03-06T11:51:06.385Z,11.53
2023-03-06T11:53:39.307Z,10.09
2023-03-06T11:56:20.651Z,9.26
2023-03-06T11:59:07.505Z,9.64
2023-03-06T12:02:01.643Z,9.03
2023-03-06T12:04:44.942Z,8.18
2023-03-06T12:07:34.737Z,8.62
2023-03-06T12:10:19.908Z,8.89
2023-03-06T12:13:15.208Z,8.70
2023-03-06T12:15:45.464Z,8.21
2023-03-06T12:18:30.654Z,8.21
2023-03-06T12:21:28.839Z,8.10
2023-03-06T12:24:04.439Z,8.10
2023-03-06T12:26:33.763Z,8.44
2023-03-06T12:29:34.712Z,9.29
2023-03-06T12:32:24.714Z,9.54
2023-03-06T12:35:06.432Z,9.51
2023-03-06T12:38:11.859Z,8.54
2023-03-06T12:41:04.301Z,7.84
2023-03-06T12:44:01.976Z,7.60
2023-03-06T12:46:28.533Z,7.80
2023-03-06T12:49:03.210Z,7.55
2023-03-06T12:51:35.383Z,7.51
2023-03-06T12:54:05.809Z,7.43
2023-03-06T12:56:34.541Z,7.44
2023-03-06T12:59:01.503Z,7.56
2023-03-06T13:01:48.871Z,7.85
2023-03-06T13:04:45.751Z,8.17
2023-03-06T13:07:24.788Z,7.76
2023-03-06T13:10:09.255Z,8.45
2023-03-06T13:12:55.721Z,9.17
2023-03-06T13:15:36.162Z,8.85
2023-03-06T13:18:22.500Z,8.48
2023-03-06T13:20:49.516Z,8.73
2023-03-06T13:23:52.380Z,8.74
2023-03-06T13:26:24.771Z,8.03
2023-03-06T13:28:55.379Z,7.41
2023-03-06T13:31:28.348Z,7.59
2023-03-06T13:34:03.628Z,7.41
2023-03-06T13:36:36.701Z,7.35
2023-03-06T13:39:11.970Z,7.82
2023-03-06T13:41:53.416Z,7.82
2023-03-06T13:44:25.881Z,7.96
2023-03-06T13:47:07.293Z,7.78
2023-03-06T13:49:35.289Z,7.51
2023-03-06T13:52:13.034Z,7.97
2023-03-06T13:54:57.594Z,7.70
2023-03-06T13:57:37.905Z,7.77
2023-03-06T14:00:25.746Z,7.93
2023-03-06T14:03:10.398Z,7.81
2023-03-06T14:05:45.059Z,7.48
2023-03-06T14:08:31.481Z,7.01
2023-03-06T14:11:02.540Z,7.21
2023-03-06T14:13:46.571Z,6.97
2023-03-06T14:16:20.126Z,7.12
2023-03-06T14:18:49.916Z,7.08
2023-03-06T14:21:27.704Z,7.23
2023-03-06T14:24:00.558Z,7.27
2023-03-06T14:26:32.384Z,7.38
2023-03-06T14:29:00.476Z,7.40
2023-03-06T14:31:31.020Z,7.45
2023-03-06T14:34:03.237Z,7.55
2023-03-06T14:36:45.683Z,7.53
2023-03-06T14:39:15.316Z,7.29
2023-03-06T14:41:41.701Z,7.06
2023-03-06T14:44:24.925Z,6.95
2023-03-06T14:46:56.984Z,7.08
2023-03-06T14:49:25.144Z,7.29
2023-03-06T14:51:57.811Z,7.29
2023-03-06T14:54:37.036Z,7.34
2023-03-06T14:57:13.969Z,7.26
2023-03-06T14:59:55.996Z,7.20
2023-03-06T15:02:26.332Z,7.03
2023-03-06T15:04:57.279Z,7.03
2023-03-06T15:07:29.064Z,7.05
2023-03-06T15:09:59.198Z,7.00
2023-03-06T15:12:28.354Z,6.98
2023-03-06T15:15:08.556Z,6.99
2023-03-06T15:17:43.708Z,6.86
2023-03-06T15:20:37.985Z,6.94
2023-03-06T15:23:17.822Z,6.77
2023-03-06T15:25:54.325Z,6.84
2023-03-06T15:28:30.172Z,6.72
2023-03-06T15:31:20.356Z,6.80
2023-03-06T15:34:08.681Z,6.78
2023-03-06T15:36:41.133Z,6.77
2023-03-06T15:39:32.087Z,6.54
2023-03-06T15:41:59.186Z,6.57
2023-03-06T15:44:25.937Z,6.53
2023-03-06T15:46:59.265Z,6.56
2023-03-06T15:49:32.938Z,6.38
2023-03-06T15:51:59.312Z,6.14
2023-03-06T15:54:25.632Z,6.02
2023-03-06T15:56:53.243Z,6.03
2023-03-06T15:59:24.026Z,6.14
2023-03-06T16:01:51.898Z,6.03
2023-03-06T16:04:19.085Z,5.91
2023-03-06T16:06:45.922Z,5.71
2023-03-06T16:09:15.792Z,5.63
2023-03-06T16:11:44.209Z,5.56
2023-03-06T16:14:18.604Z,5.49
2023-03-06T16:16:44.973Z,5.35
2023-03-06T16:19:26.078Z,5.05
2023-03-06T16:21:54.270Z,5.16
2023-03-06T16:24:20.610Z,5.00
2023-03-06T16:26:49.445Z,4.83
2023-03-06T16:29:18.005Z,4.62
2023-03-06T16:31:44.663Z,4.78
2023-03-06T16:34:14.436Z,4.75
2023-03-06T16:36:41.563Z,4.70
2023-03-06T16:39:13.527Z,4.64
2023-03-06T16:41:42.235Z,4.64
2023-03-06T16:44:08.940Z,4.60
2023-03-06T16:46:39.078Z,4.56
2023-03-06T16:49:06.096Z,4.48
2023-03-06T16:51:32.433Z,4.53
2023-03-06T16:54:01.053Z,4.46
2023-03-06T16:56:29.780Z,4.49
2023-03-06T16:58:56.133Z,4.53
2023-03-06T17:01:22.652Z,4.31
2023-03-06T17:03:49.197Z,4.49
2023-03-06T17:06:17.916Z,4.46
2023-03-06T17:08:45.255Z,4.55
2023-03-06T17:11:12.837Z,4.38
2023-03-06T17:13:42.214Z,4.43
2023-03-06T17:16:12.383Z,4.36
2023-03-06T17:18:43.147Z,4.31
2023-03-06T17:21:09.670Z,4.23
2023-03-06T17:23:37.369Z,4.24
2023-03-06T17:26:17.689Z,4.29
2023-03-06T17:28:45.472Z,4.16
2023-03-06T17:31:34.954Z,4.18
2023-03-06T17:34:03.109Z,4.19
2023-03-06T17:36:31.216Z,4.22
2023-03-06T17:38:59.658Z,4.21
2023-03-06T17:41:28.988Z,4.25
2023-03-06T17:43:56.229Z,4.26
2023-03-06T17:46:24.266Z,4.35
2023-03-06T17:48:50.692Z,4.36
2023-03-06T17:51:21.214Z,4.45
2023-03-06T17:53:47.818Z,4.40
2023-03-06T17:56:16.579Z,4.44
2023-03-06T17:58:45.438Z,4.40
2023-03-06T18:01:17.726Z,4.50
2023-03-06T18:03:46.576Z,4.56
2023-03-06T18:06:13.477Z,4.61
2023-03-06T18:08:43.032Z,4.59
2023-03-06T18:11:11.225Z,4.48
2023-03-06T18:13:42.564Z,4.51
2023-03-06T18:16:11.307Z,4.42
2023-03-06T18:18:40.690Z,4.52
2023-03-06T18:21:11.818Z,4.47
2023-03-06T18:23:45.481Z,4.24
2023-03-06T18:26:33.227Z,4.22
2023-03-06T18:29:04.032Z,4.06
2023-03-06T18:31:34.265Z,4.04
2023-03-06T18:34:28.994Z,4.08
2023-03-06T18:36:55.578Z,3.97
2023-03-06T18:39:28.037Z,3.97
2023-03-06T18:41:54.394Z,4.02
2023-03-06T18:44:21.075Z,3.89
2023-03-06T18:46:47.672Z,3.75
2023-03-06T18:49:14.366Z,3.89
2023-03-06T18:51:40.810Z,3.83
2023-03-06T18:54:08.699Z,3.81
2023-03-06T18:56:36.217Z,3.81
2023-03-06T18:59:04.848Z,3.76
2023-03-06T19:01:33.429Z,3.67
2023-03-06T19:04:05.180Z,3.67
2023-03-06T19:06:31.892Z,3.59
2023-03-06T19:09:02.882Z,3.55
2023-03-06T19:11:34.250Z,3.54
2023-03-06T19:14:01.173Z,3.52
2023-03-06T19:16:29.351Z,3.59
2023-03-06T19:19:01.195Z,3.50
2023-03-06T19:21:28.257Z,3.49
2023-03-06T19:23:57.818Z,3.45
2023-03-06T19:26:28.892Z,3.37
2023-03-06T19:28:55.721Z,3.36
2023-03-06T19:31:28.686Z,3.30
2023-03-06T19:34:00.925Z,3.27
2023-03-06T19:36:28.836Z,3.26
2023-03-06T19:38:59.636Z,3.24
2023-03-06T19:41:26.292Z,3.27
2023-03-06T19:43:59.797Z,3.23
2023-03-06T19:46:27.039Z,3.26
2023-03-06T19:48:58.677Z,3.29
2023-03-06T19:51:28.316Z,3.30
2023-03-06T19:53:56.682Z,3.28
2023-03-06T19:56:25.675Z,3.32
2023-03-06T19:58:52.930Z,3.38
2023-03-06T20:01:26.074Z,3.38
2023-03-06T20:03:57.268Z,3.47
2023-03-06T20:06:24.776Z,3.38
2023-03-06T20:08:51.354Z,3.34
2023-03-06T20:11:23.015Z,3.40
2023-03-06T20:13:50.032Z,3.40
2023-03-06T20:16:28.072Z,3.52
2023-03-06T20:18:56.844Z,3.48
2023-03-06T20:21:23.586Z,3.56
2023-03-06T20:23:54.147Z,3.58
2023-03-06T20:26:20.762Z,3.61
2023-03-06T20:28:51.959Z,3.69
2023-03-06T20:31:20.602Z,3.68
2023-03-06T20:33:50.554Z,3.74
2023-03-06T20:36:24.092Z,3.76
2023-03-06T20:38:50.514Z,3.80
2023-03-06T20:41:25.390Z,3.80
2023-03-06T20:43:52.655Z,3.87
2023-03-06T20:46:23.408Z,3.92
2023-03-06T20:48:52.152Z,3.93
2023-03-06T20:51:22.906Z,3.93
2023-03-06T20:53:51.068Z,3.96
2023-03-06T20:56:20.301Z,3.95
2023-03-06T20:58:47.124Z,3.99
2023-03-06T21:01:28.308Z,3.97
2023-03-06T21:03:55.624Z,3.98
2023-03-06T21:06:22.868Z,4.03
2023-03-06T21:08:56.093Z,4.02
2023-03-06T21:11:22.409Z,4.04
2023-03-06T21:13:50.058Z,4.07
2023-03-06T21:16:20.132Z,4.20
2023-03-06T21:18:47.061Z,4.22
2023-03-06T21:21:19.092Z,4.26
2023-03-06T21:23:46.740Z,4.19
2023-03-06T21:26:16.475Z,4.17
2023-03-06T21:28:43.709Z,4.18
2023-03-06T21:31:14.753Z,4.22
2023-03-06T21:33:44.139Z,4.22
2023-03-06T21:36:10.586Z,4.26
2023-03-06T21:38:39.830Z,4.26
2023-03-06T21:41:18.467Z,4.40
2023-03-06T21:43:47.307Z,4.45
2023-03-06T21:46:13.842Z,4.54
2023-03-06T21:48:42.469Z,4.47
2023-03-06T21:51:17.300Z,4.57
2023-03-06T21:53:44.683Z,4.65
2023-03-06T21:56:12.229Z,4.72
2023-03-06T21:58:38.614Z,4.79
2023-03-06T22:01:09.912Z,4.83
2023-03-06T22:03:41.079Z,4.87
2023-03-06T22:06:12.771Z,4.87
2023-03-06T22:08:50.883Z,4.93
2023-03-06T22:11:20.903Z,4.92
2023-03-06T22:13:48.273Z,4.93
2023-03-06T22:16:15.054Z,4.92
2023-03-06T22:18:49.358Z,4.96
2023-03-06T22:21:23.670Z,5.00
2023-03-06T22:23:51.742Z,4.99
2023-03-06T22:26:23.040Z,4.95
2023-03-06T22:28:53.107Z,4.90
2023-03-06T22:31:23.365Z,4.91
2023-03-06T22:33:51.617Z,4.95
2023-03-06T22:36:18.378Z,4.93
2023-03-06T22:38:46.632Z,4.89
2023-03-06T22:41:15.405Z,4.90
2023-03-06T22:43:42.443Z,4.92
2023-03-06T22:46:11.502Z,4.86
2023-03-06T22:48:37.904Z,4.77
2023-03-06T22:51:06.546Z,4.79
2023-03-06T22:53:33.808Z,4.82
2023-03-06T22:56:02.160Z,4.75
2023-03-06T22:58:29.960Z,4.68
2023-03-06T23:00:58.099Z,4.71
2023-03-06T23:03:26.709Z,4.70
2023-03-06T23:05:55.983Z,4.67
2023-03-06T23:08:22.360Z,4.60
2023-03-06T23:10:48.732Z,4.66
2023-03-06T23:13:17.553Z,4.65
2023-03-06T23:15:43.952Z,4.79
2023-03-06T23:18:12.810Z,4.71
2023-03-06T23:20:44.209Z,4.78
2023-03-06T23:23:17.505Z,4.78
2023-03-06T23:25:47.885Z,4.81
2023-03-06T23:28:16.894Z,4.82
2023-03-06T23:30:43.848Z,4.85
2023-03-06T23:33:13.221Z,4.71
2023-03-06T23:35:39.591Z,4.72
2023-03-06T23:38:08.965Z,4.74
2023-03-06T23:40:37.146Z,4.81
2023-03-06T23:43:03.579Z,4.75
2023-03-06T23:45:33.410Z,4.78
2023-03-06T23:47:59.757Z,4.81
2023-03-06T23:50:31.491Z,4.76
2023-03-06T23:52:59.133Z,4.74
2023-03-06T23:55:26.649Z,4.77
2023-03-06T23:57:53.011Z,4.78
